Time;durP1;ratioP1;P1;durP2;ratioP2;P2;SDS_P1;SDS_P2;PMS_P1;PMS_P2;Temp;Humidity;BMP_temperature;BMP_pressure;BME280_temperature;BME280_humidity;BME280_pressure;Samples;Min_cycle;Max_cycle;Signal;HPM_P1;HPM_P2
2021/03/28 00:00:23;;;;;;;56.13;26.73;;;4.90;99.60;;;;;;4074191;28;20695;-62
2021/03/28 00:02:36;;;;;;;59.37;27.13;;;4.80;99.60;;;;;;4075277;28;20336;-61
2021/03/28 00:05:00;;;;;;;49.30;25.23;;;4.80;99.90;;;;;;4073873;28;20274;-63
2021/03/28 00:07:05;;;;;;;50.37;24.20;;;4.70;99.90;;;;;;4065803;28;20287;-62
2021/03/28 00:09:14;;;;;;;47.20;24.53;;;4.70;99.90;;;;;;4073792;28;20332;-62
2021/03/28 00:11:21;;;;;;;47.13;22.50;;;4.70;99.90;;;;;;4074907;28;20270;-63
2021/03/28 00:13:27;;;;;;;62.33;27.73;;;4.70;99.90;;;;;;4074168;28;20270;-62
2021/03/28 00:15:33;;;;;;;54.70;24.93;;;4.70;99.90;;;;;;4075272;28;20740;-61
2021/03/28 00:17:41;;;;;;;54.97;25.63;;;4.60;99.90;;;;;;4074211;28;20701;-62
2021/03/28 00:19:48;;;;;;;57.07;29.70;;;4.60;99.90;;;;;;4075076;28;20336;-62
2021/03/28 00:21:57;;;;;;;54.40;26.80;;;4.60;99.90;;;;;;4081510;28;20289;-62
2021/03/28 00:24:17;;;;;;;53.23;27.30;;;4.50;99.90;;;;;;4090393;28;20290;-62
2021/03/28 00:26:30;;;;;;;60.97;27.25;;;4.50;99.90;;;;;;4082425;28;20348;-61
2021/03/28 00:28:31;;;;;;;56.37;27.37;;;4.50;99.90;;;;;;4075306;28;20757;-59
2021/03/28 00:30:40;;;;;;;57.57;26.27;;;4.40;99.90;;;;;;4073300;28;20576;-62
2021/03/28 00:32:50;;;;;;;56.87;26.87;;;4.40;99.90;;;;;;4074953;28;20832;-59
2021/03/28 00:35:03;;;;;;;57.87;28.73;;;4.40;99.90;;;;;;4072869;28;20274;-60
2021/03/28 00:37:07;;;;;;;59.53;27.70;;;4.30;99.90;;;;;;4074460;28;20294;-62
2021/03/28 00:39:11;;;;;;;55.50;26.17;;;4.30;99.90;;;;;;4073591;28;20348;-62
2021/03/28 00:41:19;;;;;;;49.33;25.37;;;4.30;99.90;;;;;;4074275;28;20281;-62
2021/03/28 00:43:23;;;;;;;58.57;26.97;;;4.30;99.90;;;;;;4073901;28;20336;-59
2021/03/28 00:45:28;;;;;;;56.07;25.07;;;4.20;99.90;;;;;;4074770;28;20286;-62
2021/03/28 00:47:33;;;;;;;56.17;26.93;;;4.10;99.90;;;;;;4073254;28;20274;-62
2021/03/28 00:49:41;;;;;;;53.67;24.63;;;4.10;99.90;;;;;;4076375;28;20328;-62
2021/03/28 00:51:46;;;;;;;52.80;25.10;;;4.10;99.90;;;;;;4076671;28;20262;-62
2021/03/28 00:53:51;;;;;;;52.17;26.13;;;4.10;99.90;;;;;;4077552;28;20274;-62
2021/03/28 00:56:10;;;;;;;56.17;26.10;;;4.10;99.90;;;;;;4075715;28;20627;-62
2021/03/28 00:58:19;;;;;;;52.73;26.27;;;4.20;99.90;;;;;;4077996;28;20876;-64
2021/03/28 01:00:32;;;;;;;58.50;25.47;;;4.20;99.90;;;;;;4076781;28;20286;-62
2021/03/28 01:02:39;;;;;;;54.13;25.47;;;4.20;99.90;;;;;;4077083;28;20368;-61
2021/03/28 01:04:59;;;;;;;48.17;23.00;;;4.10;99.90;;;;;;4076156;28;20332;-61
2021/03/28 01:07:29;;;;;;;48.10;24.33;;;4.10;99.90;;;;;;4077790;28;20281;-63
2021/03/28 01:09:59;;;;;;;43.07;22.13;;;4.00;99.90;;;;;;4076699;28;20368;-64
2021/03/28 01:12:39;;;;;;;44.17;22.07;;;3.90;99.90;;;;;;4113872;28;20339;-62
2021/03/28 01:15:19;;;;;;;48.73;24.60;;;3.90;99.90;;;;;;4113383;28;20278;-62
2021/03/28 01:17:32;;;;;;;49.10;22.77;;;3.80;99.90;;;;;;4075533;28;20298;-60
2021/03/28 01:19:48;;;;;;;53.33;24.70;;;3.80;99.90;;;;;;4076961;28;20035;-61
2021/03/28 01:22:21;;;;;;;49.77;23.90;;;3.90;99.90;;;;;;4075662;28;20285;-62
2021/03/28 01:24:58;;;;;;;46.47;22.97;;;3.90;99.90;;;;;;4077070;28;20278;-62
2021/03/28 01:27:06;;;;;;;50.70;23.50;;;3.90;99.90;;;;;;4124257;28;20440;-61
2021/03/28 01:29:28;;;;;;;50.63;23.67;;;3.90;99.90;;;;;;4077460;28;20340;-63
2021/03/28 01:31:50;;;;;;;49.87;21.63;;;3.90;99.90;;;;;;4075903;28;20278;-63
2021/03/28 01:34:01;;;;;;;46.07;20.80;;;3.90;99.90;;;;;;4076728;28;20335;-64
2021/03/28 01:36:10;;;;;;;43.33;19.80;;;3.90;99.90;;;;;;4077060;28;21007;-63
2021/03/28 01:38:35;;;;;;;41.57;20.77;;;3.90;99.90;;;;;;4076139;28;20298;-62
2021/03/28 01:40:42;;;;;;;40.50;19.97;;;3.80;99.90;;;;;;4076589;28;20282;-63
2021/03/28 01:42:49;;;;;;;43.77;21.10;;;3.80;99.90;;;;;;4075968;28;20336;-62
2021/03/28 01:45:09;;;;;;;47.47;21.87;;;3.80;99.90;;;;;;4076013;28;20763;-64
2021/03/28 01:47:34;;;;;;;43.95;21.17;;;3.80;99.90;;;;;;4075874;28;20320;-63
2021/03/28 01:49:52;;;;;;;41.73;20.03;;;3.80;99.90;;;;;;4077029;28;20027;-62
2021/03/28 01:52:05;;;;;;;40.70;19.43;;;3.80;99.90;;;;;;4074854;28;20262;-64
2021/03/28 01:54:31;;;;;;;43.67;21.43;;;3.80;99.90;;;;;;4076860;28;20282;-62
2021/03/28 01:56:35;;;;;;;46.00;21.83;;;3.80;99.90;;;;;;4074731;28;20274;-62
2021/03/28 01:59:02;;;;;;;48.80;22.97;;;3.80;99.90;;;;;;4066829;28;20270;-62
2021/03/28 02:01:35;;;;;;;46.10;21.70;;;3.80;99.90;;;;;;4074792;28;20278;-64
2021/03/28 02:03:51;;;;;;;43.50;20.60;;;3.80;99.90;;;;;;4076602;28;20786;-65
2021/03/28 02:06:32;;;;;;;47.80;21.37;;;3.80;99.90;;;;;;4075512;28;20772;-62
2021/03/28 02:08:54;;;;;;;;;;;3.80;99.90;;;;;;4129671;28;20762;-62
2021/03/28 02:11:14;;;;;;;42.27;20.57;;;3.80;99.90;;;;;;4075892;28;19960;-63
2021/03/28 02:13:21;;;;;;;50.47;22.70;;;3.70;99.90;;;;;;4075592;28;20324;-62
2021/03/28 02:15:28;;;;;;;46.70;21.43;;;3.70;99.90;;;;;;4076288;28;20274;-63
2021/03/28 02:18:03;;;;;;;58.40;23.30;;;3.60;99.90;;;;;;4073908;28;20302;-62
2021/03/28 02:20:22;;;;;;;48.17;20.90;;;3.50;99.90;;;;;;4076267;28;20262;-63
2021/03/28 02:22:30;;;;;;;50.00;20.57;;;3.50;99.90;;;;;;4075316;28;20286;-63
2021/03/28 02:24:37;;;;;;;43.43;19.43;;;3.50;99.90;;;;;;4076508;28;20308;-62
2021/03/28 02:26:48;;;;;;;52.10;20.93;;;3.50;99.90;;;;;;4075002;28;20282;-64
2021/03/28 02:29:30;;;;;;;44.53;21.17;;;3.50;99.90;;;;;;4077038;28;20749;-63
2021/03/28 02:31:52;;;;;;;49.57;21.77;;;3.50;99.90;;;;;;4128161;28;20270;-62
2021/03/28 02:34:07;;;;;;;50.27;21.87;;;3.50;99.90;;;;;;4076662;28;20651;-65
2021/03/28 02:36:34;;;;;;;52.07;22.50;;;3.50;99.90;;;;;;4071119;28;20309;-63
2021/03/28 02:39:12;;;;;;;54.17;22.33;;;3.50;99.90;;;;;;4075414;28;20290;-62
2021/03/28 02:41:25;;;;;;;49.60;21.60;;;3.50;99.90;;;;;;4075756;28;20387;-63
2021/03/28 02:43:36;;;;;;;50.17;20.20;;;3.50;99.90;;;;;;4074623;28;20278;-62
2021/03/28 02:45:48;;;;;;;50.10;22.70;;;3.50;99.90;;;;;;4075083;28;20278;-62
2021/03/28 02:48:08;;;;;;;47.33;21.97;;;3.50;99.90;;;;;;4074656;28;20774;-62
2021/03/28 02:50:25;;;;;;;45.27;20.47;;;3.50;99.90;;;;;;4075453;28;20282;-62
2021/03/28 02:52:26;;;;;;;45.50;22.10;;;3.50;99.90;;;;;;4059176;28;20263;-63
2021/03/28 02:54:57;;;;;;;42.43;20.90;;;3.40;99.90;;;;;;4061783;28;20259;-62
2021/03/28 02:57:16;;;;;;;43.73;20.30;;;3.40;99.90;;;;;;4074461;28;20289;-62
2021/03/28 02:59:47;;;;;;;46.20;21.43;;;3.40;99.90;;;;;;4076677;28;20254;-62
2021/03/28 03:02:19;;;;;;;44.22;18.08;;;3.30;99.90;;;;;;4084622;28;20269;-61
2021/03/28 03:04:53;;;;;;;45.57;20.97;;;3.20;99.90;;;;;;4076019;28;20094;-62
2021/03/28 03:07:12;;;;;;;39.00;18.13;;;3.20;99.90;;;;;;4127908;28;20340;-63
2021/03/28 03:09:37;;;;;;;43.77;20.80;;;3.10;99.90;;;;;;4074707;28;20324;-62
2021/03/28 03:11:44;;;;;;;44.17;20.80;;;3.10;99.90;;;;;;4074706;28;20654;-64
2021/03/28 03:13:45;;;;;;;42.03;21.13;;;3.10;99.90;;;;;;4074402;28;20282;-62
2021/03/28 03:16:00;;;;;;;45.03;20.00;;;3.10;99.90;;;;;;4075264;28;20270;-62
2021/03/28 03:18:25;;;;;;;42.23;20.17;;;3.10;99.90;;;;;;4074826;28;20306;-62
2021/03/28 03:20:58;;;;;;;49.63;22.20;;;3.00;99.90;;;;;;4075942;28;20278;-62
2021/03/28 03:23:21;;;;;;;44.37;21.27;;;2.90;99.90;;;;;;4074476;28;20266;-62
2021/03/28 03:25:43;;;;;;;48.60;23.23;;;2.80;99.90;;;;;;4081593;28;20281;-62
2021/03/28 03:28:02;;;;;;;49.17;22.23;;;2.60;99.90;;;;;;4075506;28;20270;-63
2021/03/28 03:30:41;;;;;;;50.13;25.43;;;2.60;99.90;;;;;;4076202;28;20270;-61
2021/03/28 03:32:58;;;;;;;49.43;24.53;;;2.60;99.90;;;;;;4075119;28;20274;-62
2021/03/28 03:35:12;;;;;;;58.20;25.10;;;2.50;99.90;;;;;;4075161;29;20825;-64
2021/03/28 03:37:25;;;;;;;57.13;26.73;;;2.50;99.90;;;;;;4074286;28;20294;-62
2021/03/28 03:39:56;;;;;;;63.10;27.40;;;2.40;99.90;;;;;;4074299;28;20313;-62
2021/03/28 03:42:12;;;;;;;54.35;25.30;;;2.30;99.90;;;;;;4095065;28;20282;-62
2021/03/28 03:44:34;;;;;;;54.57;25.87;;;2.30;99.90;;;;;;4073862;28;20048;-62
2021/03/28 03:47:12;;;;;;;49.90;24.07;;;2.30;99.90;;;;;;4065910;28;20282;-61
2021/03/28 03:49:41;;;;;;;62.03;27.07;;;2.30;99.90;;;;;;4074159;28;20274;-61
2021/03/28 03:51:51;;;;;;;65.73;27.70;;;2.30;99.90;;;;;;4075191;28;20282;-63
2021/03/28 03:53:57;;;;;;;56.97;27.23;;;2.30;99.90;;;;;;4073875;28;20273;-58
2021/03/28 03:56:15;;;;;;;71.87;28.13;;;2.30;99.90;;;;;;4075353;28;20281;-61
2021/03/28 03:58:22;;;;;;;69.40;29.53;;;2.10;99.90;;;;;;4073740;28;20298;-61
2021/03/28 04:00:31;;;;;;;63.30;28.47;;;2.10;99.90;;;;;;4075456;28;20286;-61
2021/03/28 04:02:41;;;;;;;72.03;30.23;;;2.10;99.90;;;;;;4073300;28;20682;-62
2021/03/28 04:04:59;;;;;;;64.67;29.17;;;2.00;99.90;;;;;;4075345;28;20275;-62
2021/03/28 04:07:14;;;;;;;71.77;28.93;;;2.00;99.90;;;;;;4073258;28;20332;-62
2021/03/28 04:09:23;;;;;;;59.83;27.70;;;1.90;99.90;;;;;;4074347;28;20278;-61
2021/03/28 04:12:18;;;;;;;70.63;30.43;;;1.90;99.90;;;;;;4073736;28;20275;-61
2021/03/28 04:14:27;;;;;;;64.50;29.07;;;1.90;99.90;;;;;;4154451;28;20278;-61
2021/03/28 04:16:52;;;;;;;63.63;28.90;;;1.90;99.90;;;;;;4093648;28;20286;-63
2021/03/28 04:19:12;;;;;;;58.60;28.83;;;1.90;99.90;;;;;;4074054;28;20657;-62
2021/03/28 04:21:44;;;;;;;66.72;29.50;;;1.90;99.90;;;;;;4074632;28;20282;-62
2021/03/28 04:23:48;;;;;;;58.90;26.73;;;1.90;99.90;;;;;;4072579;28;20040;-61
2021/03/28 04:26:10;;;;;;;62.33;27.93;;;1.90;99.90;;;;;;4074661;28;20340;-62
2021/03/28 04:28:39;;;;;;;73.40;30.93;;;2.00;99.90;;;;;;4073793;28;20270;-63
2021/03/28 04:30:49;;;;;;;71.03;29.20;;;2.00;99.90;;;;;;4075524;28;20352;-62
2021/03/28 04:32:56;;;;;;;69.67;31.23;;;2.00;99.90;;;;;;4073964;28;20659;-63
2021/03/28 04:34:57;;;;;;;66.83;31.87;;;2.00;99.90;;;;;;4074484;28;20312;-62
2021/03/28 04:37:16;;;;;;;70.00;32.50;;;1.90;99.90;;;;;;4073565;28;20282;-63
2021/03/28 04:39:26;;;;;;;68.57;32.43;;;1.90;99.90;;;;;;4074238;28;20290;-62
2021/03/28 04:41:38;;;;;;;69.65;30.50;;;1.90;99.90;;;;;;4073487;28;20348;-61
2021/03/28 04:43:42;;;;;;;73.83;31.83;;;2.00;99.90;;;;;;4074738;28;20031;-62
2021/03/28 04:46:21;;;;;;;83.20;32.33;;;2.30;99.90;;;;;;4073018;28;20340;-61
2021/03/28 04:48:59;;;;;;;71.63;31.17;;;2.50;99.90;;;;;;4073556;28;20678;-62
2021/03/28 04:51:06;;;;;;;70.73;31.40;;;2.70;99.90;;;;;;4074306;28;20270;-61
2021/03/28 04:53:25;;;;;;;72.57;32.27;;;2.70;99.90;;;;;;4073827;28;20336;-61
2021/03/28 04:56:07;;;;;;;72.17;32.47;;;2.80;99.90;;;;;;4073903;28;20270;-61
2021/03/28 04:58:24;;;;;;;67.90;31.07;;;3.00;99.90;;;;;;4073409;28;20318;-63
2021/03/28 05:00:46;;;;;;;68.17;31.97;;;3.40;99.90;;;;;;4074704;28;20352;-62
2021/03/28 05:03:06;;;;;;;71.10;32.83;;;4.10;99.90;;;;;;4073501;28;20325;-64
2021/03/28 05:05:29;;;;;;;62.33;31.03;;;4.80;99.90;;;;;;4073617;28;20294;-62
2021/03/28 05:10:25;;;;;;;78.13;33.47;;;5.80;99.90;;;;;;4620347;22;20302;-61
2021/03/28 05:12:59;;;;;;;69.80;32.75;;;6.00;99.90;;;;;;4146636;28;20634;-60
2021/03/28 05:15:48;;;;;;;67.20;30.67;;;6.40;99.90;;;;;;4145001;28;20482;-60
2021/03/28 05:18:05;;;;;;;65.10;29.77;;;7.00;99.90;;;;;;4142212;28;20295;-64
2021/03/28 05:20:25;;;;;;;67.67;32.43;;;7.20;99.90;;;;;;4145424;28;20267;-61
2021/03/28 05:22:50;;;;;;;59.53;29.10;;;7.20;99.90;;;;;;4144560;28;20286;-62
2021/03/28 05:25:10;;;;;;;56.23;28.80;;;7.10;99.90;;;;;;4145670;28;20774;-61
2021/03/28 05:27:41;;;;;;;58.57;28.87;;;6.90;99.90;;;;;;4152230;28;20321;-62
2021/03/28 05:30:30;;;;;;;68.80;31.03;;;6.70;99.90;;;;;;4143753;28;20395;-63
2021/03/28 05:32:37;;;;;;;65.40;31.50;;;6.50;99.90;;;;;;4154138;28;20103;-61
2021/03/28 05:34:48;;;;;;;69.77;31.67;;;6.00;99.90;;;;;;4143732;28;20670;-62
2021/03/28 05:37:19;;;;;;;61.27;29.63;;;5.80;99.90;;;;;;4148873;28;20279;-60
2021/03/28 05:39:34;;;;;;;;;;;5.70;99.90;;;;;;4147208;28;20053;-63
2021/03/28 05:42:12;;;;;;;64.87;30.57;;;5.70;99.90;;;;;;4147924;28;19905;-65
2021/03/28 05:44:46;;;;;;;65.03;32.33;;;5.70;99.90;;;;;;4147814;28;20272;-63
2021/03/28 05:46:59;;;;;;;55.10;29.37;;;5.60;99.90;;;;;;4147610;28;20267;-64
2021/03/28 05:49:36;;;;;;;57.43;28.47;;;5.50;99.90;;;;;;4147666;28;20676;-62
2021/03/28 05:51:49;;;;;;;54.13;24.33;;;5.40;99.90;;;;;;4146563;28;20678;-61
2021/03/28 05:54:18;;;;;;;45.83;23.40;;;5.20;99.90;;;;;;4147785;28;20275;-62
2021/03/28 05:56:31;;;;;;;42.40;21.50;;;5.10;99.90;;;;;;4157976;28;20291;-62
2021/03/28 05:58:46;;;;;;;38.17;18.97;;;5.10;99.90;;;;;;4147161;28;20361;-62
2021/03/28 06:01:06;;;;;;;38.50;20.30;;;5.10;99.90;;;;;;4146335;28;20279;-63
2021/03/28 06:03:22;;;;;;;36.70;19.13;;;5.10;99.90;;;;;;4146962;28;20318;-60
2021/03/28 06:05:34;;;;;;;42.70;20.97;;;5.10;99.90;;;;;;4146763;28;20263;-66
2021/03/28 06:07:54;;;;;;;41.83;19.70;;;5.20;99.90;;;;;;4146854;28;20275;-60
2021/03/28 06:10:13;;;;;;;39.47;19.93;;;5.30;99.90;;;;;;4146459;28;20303;-61
2021/03/28 06:12:33;;;;;;;32.87;17.33;;;5.30;99.90;;;;;;4143537;28;20623;-62
2021/03/28 06:15:09;;;;;;;35.63;17.13;;;5.40;99.90;;;;;;4142710;28;20374;-62
2021/03/28 06:17:18;;;;;;;46.30;17.37;;;5.50;99.90;;;;;;4141968;28;20275;-61
2021/03/28 06:19:38;;;;;;;35.73;17.80;;;5.50;99.90;;;;;;4142936;28;20353;-62
2021/03/28 06:22:01;;;;;;;35.13;17.57;;;5.60;99.90;;;;;;4141855;28;20681;-61
2021/03/28 06:24:20;;;;;;;33.17;16.80;;;5.70;99.90;;;;;;4143096;28;20286;-62
2021/03/28 06:26:59;;;;;;;29.83;15.03;;;5.80;99.90;;;;;;4155645;28;21105;-61
2021/03/28 06:29:16;;;;;;;31.40;16.00;;;5.80;99.90;;;;;;4158852;28;20258;-62
2021/03/28 06:32:02;;;;;;;28.87;15.20;;;6.00;99.90;;;;;;4151335;28;20333;-62
2021/03/28 06:34:27;;;;;;;23.57;14.37;;;6.20;99.90;;;;;;4150189;28;20279;-65
2021/03/28 06:36:47;;;;;;;31.37;15.23;;;6.50;99.90;;;;;;4140936;28;20291;-63
2021/03/28 06:39:15;;;;;;;30.17;14.00;;;6.80;99.90;;;;;;4139156;28;20350;-64
2021/03/28 06:41:59;;;;;;;29.87;13.03;;;7.10;99.90;;;;;;4142633;28;21245;-62
2021/03/28 06:44:34;;;;;;;24.47;11.73;;;7.30;99.90;;;;;;4142110;28;20361;-63
2021/03/28 06:46:54;;;;;;;27.40;13.50;;;7.50;99.90;;;;;;4148378;28;20403;-64
2021/03/28 06:49:28;;;;;;;24.67;12.13;;;7.70;99.90;;;;;;4158135;28;20328;-62
2021/03/28 06:51:48;;;;;;;30.07;13.50;;;7.80;99.90;;;;;;4147424;28;20080;-63
2021/03/28 06:54:02;;;;;;;30.13;12.77;;;8.00;99.90;;;;;;4143592;28;20283;-64
2021/03/28 06:56:34;;;;;;;26.03;13.53;;;8.20;99.90;;;;;;4148965;28;20102;-62
2021/03/28 06:58:49;;;;;;;25.13;12.53;;;8.30;99.90;;;;;;4149571;28;20049;-61
2021/03/28 07:01:09;;;;;;;27.13;12.90;;;8.30;99.90;;;;;;4140935;28;20030;-66
2021/03/28 07:03:24;;;;;;;32.63;15.67;;;8.20;99.90;;;;;;4141792;28;20351;-62
2021/03/28 07:05:25;;;;;;;24.27;12.77;;;8.10;99.90;;;;;;4141073;28;20898;-64
2021/03/28 07:07:57;;;;;;;24.77;13.37;;;8.00;99.90;;;;;;4142127;28;20045;-62
2021/03/28 07:10:30;;;;;;;20.37;11.63;;;7.90;99.90;;;;;;4140097;28;20050;-60
2021/03/28 07:12:31;;;;;;;29.10;14.80;;;7.80;99.90;;;;;;4141239;28;20041;-62
2021/03/28 07:15:03;;;;;;;37.43;17.53;;;7.60;99.90;;;;;;4141319;28;20045;-62
2021/03/28 07:17:13;;;;;;;46.17;24.17;;;7.50;99.90;;;;;;4140682;28;20034;-62
2021/03/28 07:20:06;;;;;;;19.95;11.10;;;7.40;99.90;;;;;;4141735;28;20647;-61
2021/03/28 07:22:54;;;;;;;23.13;12.23;;;7.30;99.90;;;;;;4140837;28;20087;-64
2021/03/28 07:25:27;;;;;;;13.23;8.60;;;7.30;99.90;;;;;;4140750;28;20889;-62
2021/03/28 07:27:40;;;;;;;14.67;8.33;;;7.30;99.90;;;;;;4148083;28;20034;-60
2021/03/28 07:29:53;;;;;;;10.87;7.33;;;7.40;99.90;;;;;;4143456;28;20096;-64
2021/03/28 07:32:32;;;;;;;14.20;7.97;;;7.40;99.90;;;;;;4140892;28;20318;-61
2021/03/28 07:35:17;;;;;;;16.93;8.47;;;7.40;99.90;;;;;;4140310;28;20022;-62
2021/03/28 07:37:31;;;;;;;15.47;8.00;;;7.40;99.90;;;;;;4135669;28;20593;-62
2021/03/28 07:39:50;;;;;;;12.80;7.63;;;7.40;99.90;;;;;;4148024;28;20299;-62
2021/03/28 07:42:09;;;;;;;22.83;9.87;;;7.40;99.90;;;;;;4158134;28;20041;-62
2021/03/28 07:44:34;;;;;;;19.37;8.17;;;7.40;99.90;;;;;;4154643;28;20041;-61
2021/03/28 07:46:54;;;;;;;14.37;8.13;;;7.50;99.90;;;;;;4144188;28;20283;-62
2021/03/28 07:49:32;;;;;;;16.67;8.32;;;7.50;99.90;;;;;;4140326;28;20433;-61
2021/03/28 07:52:11;;;;;;;15.13;7.03;;;7.50;99.90;;;;;;4146659;28;20080;-59
2021/03/28 07:54:48;;;;;;;12.57;6.83;;;7.40;99.90;;;;;;4154581;28;20481;-63
2021/03/28 07:57:26;;;;;;;12.77;8.03;;;7.50;99.90;;;;;;4148312;28;20279;-61
2021/03/28 07:59:45;;;;;;;15.53;6.70;;;7.50;99.90;;;;;;4149709;28;20053;-61
2021/03/28 08:01:53;;;;;;;14.60;7.20;;;7.50;99.90;;;;;;4156109;28;20290;-62
2021/03/28 08:04:19;;;;;;;16.07;7.63;;;7.40;99.90;;;;;;4157544;28;20275;-61
2021/03/28 08:06:23;;;;;;;18.67;8.00;;;7.50;99.90;;;;;;4141720;28;20518;-62
2021/03/28 08:08:39;;;;;;;11.37;5.77;;;7.60;99.90;;;;;;4140882;28;20034;-60
2021/03/28 08:11:04;;;;;;;12.30;5.40;;;7.70;99.90;;;;;;4139562;28;20353;-65
2021/03/28 08:13:29;;;;;;;10.10;4.70;;;7.90;99.90;;;;;;4140329;28;20267;-64
2021/03/28 08:15:39;;;;;;;20.93;8.20;;;8.00;99.90;;;;;;4141746;28;20452;-63
2021/03/28 08:17:54;;;;;;;18.93;8.73;;;8.10;99.90;;;;;;4140452;28;20816;-62
2021/03/28 08:20:37;;;;;;;12.20;5.70;;;8.20;99.90;;;;;;4140918;28;20042;-62
2021/03/28 08:23:02;;;;;;;19.50;7.47;;;8.30;99.90;;;;;;4132317;28;20034;-61
2021/03/28 08:25:35;;;;;;;17.90;5.33;;;8.30;99.90;;;;;;4139708;28;20081;-61
2021/03/28 08:28:11;;;;;;;9.00;5.13;;;8.30;99.90;;;;;;4139485;28;20042;-61
2021/03/28 08:30:30;;;;;;;5.57;3.60;;;8.20;99.90;;;;;;4140201;28;20390;-62
2021/03/28 08:32:44;;;;;;;17.37;8.30;;;8.20;99.90;;;;;;4139841;28;20033;-61
2021/03/28 08:35:21;;;;;;;15.10;7.60;;;8.20;99.90;;;;;;4139854;28;20359;-60
2021/03/28 08:38:04;;;;;;;9.07;5.03;;;8.30;99.90;;;;;;4140738;28;20026;-61
2021/03/28 08:40:08;;;;;;;13.27;7.37;;;8.30;99.90;;;;;;4131472;28;20517;-62
2021/03/28 08:42:15;;;;;;;10.70;6.23;;;8.40;99.90;;;;;;4140830;28;20034;-62
2021/03/28 08:45:06;;;;;;;10.23;5.70;;;8.40;99.90;;;;;;4139669;28;20030;-61
2021/03/28 08:47:44;;;;;;;9.63;5.37;;;8.50;99.90;;;;;;4122130;28;20606;-63
2021/03/28 08:50:02;;;;;;;8.47;5.30;;;8.60;99.90;;;;;;4139989;28;20163;-62
2021/03/28 08:52:33;;;;;;;7.00;4.07;;;8.70;99.90;;;;;;4139887;28;20026;-62
2021/03/28 08:54:37;;;;;;;;;;;8.80;99.90;;;;;;4141081;28;20095;-62
2021/03/28 08:57:01;;;;;;;5.03;3.70;;;8.90;99.90;;;;;;4139314;28;19963;-64
2021/03/28 08:59:08;;;;;;;6.87;3.67;;;9.00;99.90;;;;;;4140413;28;20745;-62
2021/03/28 09:01:23;;;;;;;6.90;3.90;;;9.10;99.90;;;;;;4139342;28;20342;-65
2021/03/28 09:03:46;;;;;;;8.17;4.47;;;9.30;99.90;;;;;;4140662;28;20041;-62
2021/03/28 09:05:57;;;;;;;16.43;6.23;;;9.50;99.90;;;;;;4139942;28;20054;-63
2021/03/28 09:08:09;;;;;;;9.80;4.13;;;9.70;99.90;;;;;;4140717;28;20042;-62
2021/03/28 09:10:25;;;;;;;14.47;4.33;;;9.70;99.90;;;;;;4140696;28;20065;-64
2021/03/28 09:12:49;;;;;;;6.00;3.10;;;9.60;99.90;;;;;;4144087;28;20555;-62
2021/03/28 09:15:09;;;;;;;17.97;5.80;;;9.50;99.90;;;;;;4142414;28;20092;-61
2021/03/28 09:17:58;;;;;;;9.13;3.00;;;9.50;99.90;;;;;;4143754;28;20087;-69
2021/03/28 09:20:08;;;;;;;21.43;7.30;;;9.50;99.90;;;;;;4137438;28;20057;-63
2021/03/28 09:22:09;;;;;;;;;;;9.70;99.90;;;;;;4142579;28;20026;-64
2021/03/28 09:24:13;;;;;;;;;;;9.70;99.90;;;;;;4141967;28;19951;-66
2021/03/28 09:26:54;;;;;;;11.53;4.47;;;9.80;99.90;;;;;;4142418;28;20468;-64
2021/03/28 09:29:33;;;;;;;9.73;3.42;;;9.90;99.90;;;;;;4141983;28;20034;-63
2021/03/28 09:31:55;;;;;;;7.27;2.97;;;10.00;99.90;;;;;;4141849;28;20026;-63
2021/03/28 09:34:22;;;;;;;6.53;2.03;;;10.30;99.90;;;;;;4143847;28;20123;-68
2021/03/28 09:36:38;;;;;;;9.53;2.97;;;10.50;99.80;;;;;;4140362;28;20042;-64
2021/03/28 09:39:09;;;;;;;10.37;3.70;;;10.60;99.40;;;;;;4142438;28;20560;-63
2021/03/28 09:41:25;;;;;;;9.80;5.30;;;10.60;98.10;;;;;;4141133;28;20042;-65
2021/03/28 09:43:38;;;;;;;6.70;3.13;;;10.80;98.20;;;;;;4143102;28;20045;-64
2021/03/28 09:46:00;;;;;;;5.30;1.70;;;11.00;97.10;;;;;;4142308;28;20080;-62
2021/03/28 09:48:24;;;;;;;5.70;3.00;;;11.20;95.90;;;;;;4158691;28;20029;-65
2021/03/28 09:50:25;;;;;;;4.10;2.30;;;11.30;95.80;;;;;;4158560;28;20026;-64
2021/03/28 09:52:51;;;;;;;3.67;2.10;;;11.10;96.10;;;;;;4158587;28;20068;-64
2021/03/28 09:55:34;;;;;;;2.87;1.60;;;11.20;94.90;;;;;;4159051;28;20038;-63
2021/03/28 09:58:03;;;;;;;11.67;3.23;;;11.40;93.70;;;;;;4157400;28;20936;-63
2021/03/28 10:00:41;;;;;;;9.50;4.53;;;11.60;93.50;;;;;;4156902;28;20555;-62
2021/03/28 10:03:03;;;;;;;10.97;4.30;;;11.80;92.50;;;;;;4158188;28;20033;-65
2021/03/28 10:05:11;;;;;;;3.97;2.13;;;12.10;92.20;;;;;;4159063;28;20041;-63
2021/03/28 10:07:15;;;;;;;7.60;2.60;;;12.10;90.50;;;;;;4156944;28;20033;-64
2021/03/28 10:09:22;;;;;;;11.00;3.50;;;12.10;90.50;;;;;;4154481;28;20473;-63
2021/03/28 10:11:41;;;;;;;17.33;4.33;;;11.90;87.50;;;;;;4157669;28;20091;-63
2021/03/28 10:13:57;;;;;;;10.00;2.43;;;11.60;84.90;;;;;;4159457;28;20041;-63
2021/03/28 10:16:05;;;;;;;9.43;2.47;;;11.40;83.60;;;;;;4157929;28;20021;-73
2021/03/28 10:18:19;;;;;;;11.37;4.30;;;11.20;84.20;;;;;;4142759;28;20512;-64
2021/03/28 10:20:34;;;;;;;18.57;3.97;;;11.00;83.00;;;;;;4140963;28;20065;-65
2021/03/28 10:23:00;;;;;;;15.77;5.80;;;10.80;82.30;;;;;;4141746;28;20050;-66
2021/03/28 10:25:29;;;;;;;10.20;3.60;;;10.60;82.60;;;;;;4141888;28;20061;-65
2021/03/28 10:28:18;;;;;;;17.00;7.00;;;10.50;84.40;;;;;;4140993;28;20740;-64
2021/03/28 10:30:29;;;;;;;5.27;2.20;;;10.50;85.00;;;;;;4145974;28;20034;-68
2021/03/28 10:32:57;;;;;;;6.90;2.80;;;10.40;86.70;;;;;;4158967;28;20447;-63
2021/03/28 10:35:17;;;;;;;11.00;3.33;;;10.20;87.60;;;;;;4173376;28;20065;-65
2021/03/28 10:37:39;;;;;;;6.63;3.07;;;10.10;88.50;;;;;;4174038;28;20531;-65
2021/03/28 10:40:02;;;;;;;7.53;2.10;;;10.00;89.10;;;;;;4158435;28;20123;-64
2021/03/28 10:42:36;;;;;;;4.57;2.30;;;9.90;89.40;;;;;;4157395;28;20084;-62
2021/03/28 10:44:50;;;;;;;5.67;3.30;;;9.80;88.50;;;;;;4157485;28;20720;-63
2021/03/28 10:47:10;;;;;;;7.33;2.67;;;9.80;89.30;;;;;;4158095;28;20079;-63
2021/03/28 10:49:32;;;;;;;8.43;3.33;;;9.70;88.50;;;;;;4156723;28;20025;-64
2021/03/28 10:52:04;;;;;;;5.40;2.83;;;9.60;88.00;;;;;;4157260;28;20037;-62
2021/03/28 10:54:20;;;;;;;8.30;4.17;;;9.50;86.40;;;;;;4156712;28;20393;-64
2021/03/28 10:56:24;;;;;;;5.63;1.93;;;9.50;87.10;;;;;;4157896;28;20034;-62
2021/03/28 10:59:02;;;;;;;6.37;1.90;;;9.50;86.50;;;;;;4149466;28;20080;-64
2021/03/28 11:01:22;;;;;;;6.67;3.00;;;9.50;86.10;;;;;;4141843;28;20053;-63
2021/03/28 11:03:42;;;;;;;15.63;2.00;;;9.60;87.10;;;;;;4140783;28;20061;-63
2021/03/28 11:06:04;;;;;;;8.00;1.97;;;9.50;92.00;;;;;;4141435;28;20033;-63
2021/03/28 11:08:30;;;;;;;7.17;2.50;;;9.30;92.80;;;;;;4155671;28;20485;-67
2021/03/28 11:10:51;;;;;;;9.83;2.27;;;9.40;92.70;;;;;;4155655;28;20103;-66
2021/03/28 11:13:05;;;;;;;4.17;2.03;;;9.50;92.60;;;;;;4151991;28;20050;-69
2021/03/28 11:15:36;;;;;;;6.97;1.47;;;9.60;92.30;;;;;;4144207;28;20549;-67
2021/03/28 11:18:02;;;;;;;4.17;1.10;;;9.60;91.60;;;;;;4141921;28;20025;-67
2021/03/28 11:20:34;;;;;;;4.93;2.20;;;9.50;91.40;;;;;;4140588;28;20041;-64
2021/03/28 11:22:44;;;;;;;3.13;1.50;;;9.40;91.70;;;;;;4144221;28;20523;-64
2021/03/28 11:25:05;;;;;;;5.38;1.88;;;9.30;91.90;;;;;;4156698;28;20107;-67
2021/03/28 11:27:06;;;;;;;;;;;9.30;92.40;;;;;;4158631;28;20504;-64
2021/03/28 11:29:35;;;;;;;14.93;2.80;;;9.20;93.20;;;;;;4156764;28;19991;-66
2021/03/28 11:32:00;;;;;;;1.67;1.17;;;9.20;93.60;;;;;;4157165;28;20065;-68
2021/03/28 11:34:04;;;;;;;3.00;2.00;;;9.00;93.90;;;;;;4157059;28;20076;-64
2021/03/28 11:36:14;;;;;;;2.73;1.90;;;9.10;94.20;;;;;;4156611;28;20025;-64
2021/03/28 11:38:18;;;;;;;4.15;1.58;;;9.20;94.50;;;;;;4153622;28;20029;-63
2021/03/28 11:40:49;;;;;;;2.63;1.63;;;9.20;94.10;;;;;;4156944;28;20037;-65
2021/03/28 11:43:29;;;;;;;5.20;2.67;;;9.20;95.00;;;;;;4156012;28;20096;-64
2021/03/28 11:46:05;;;;;;;4.40;2.50;;;9.20;96.10;;;;;;4154874;28;20042;-63
2021/03/28 11:48:31;;;;;;;4.20;2.20;;;9.20;97.00;;;;;;4141916;28;20120;-62
2021/03/28 11:50:38;;;;;;;6.23;2.80;;;9.30;96.70;;;;;;4140001;28;20080;-62
2021/03/28 11:52:44;;;;;;;3.13;1.77;;;9.30;96.90;;;;;;4139813;28;20080;-62
2021/03/28 11:55:09;;;;;;;2.37;1.90;;;9.30;97.10;;;;;;4139767;28;20037;-61
2021/03/28 11:57:28;;;;;;;4.33;1.37;;;9.30;97.00;;;;;;4140520;28;20686;-62
2021/03/28 11:59:34;;;;;;;3.63;1.70;;;9.40;96.60;;;;;;4139795;28;20112;-62
2021/03/28 12:01:57;;;;;;;5.30;1.90;;;9.40;96.20;;;;;;4139879;28;20468;-63
2021/03/28 12:04:29;;;;;;;6.53;2.27;;;9.40;95.80;;;;;;4139556;28;20092;-62
2021/03/28 12:06:30;;;;;;;8.40;2.23;;;9.50;94.90;;;;;;4142533;28;20519;-62
2021/03/28 12:08:46;;;;;;;8.80;2.03;;;9.60;94.90;;;;;;4155935;28;20033;-62